createdAt,value
2023-10-09T00:01:39.604Z,101495.81
2023-10-09T00:04:13.022Z,101487.15
2023-10-09T00:06:45.834Z,101499.73
2023-10-09T00:09:37.783Z,101500.67
2023-10-09T00:12:11.872Z,101503.91
2023-10-09T00:14:49.189Z,101513.67
2023-10-09T00:17:25.078Z,101504.70
2023-10-09T00:20:01.282Z,101503.58
2023-10-09T00:22:39.500Z,101508.53
2023-10-09T00:25:13.217Z,101511.06
2023-10-09T00:27:47.743Z,101506.96
2023-10-09T00:30:23.037Z,101506.41
2023-10-09T00:33:01.347Z,101511.08
2023-10-09T00:35:47.914Z,101522.86
2023-10-09T00:38:33.711Z,101522.73
2023-10-09T00:41:11.782Z,101526.95
2023-10-09T00:43:45.393Z,101537.27
2023-10-09T00:46:25.693Z,101534.48
2023-10-09T00:49:04.082Z,101541.60
2023-10-09T00:51:37.692Z,101544.64
2023-10-09T00:54:16.500Z,101548.69
2023-10-09T00:56:59.328Z,101550.86
2023-10-09T00:59:32.750Z,101560.79
2023-10-09T01:02:06.758Z,101561.75
2023-10-09T01:04:42.636Z,101567.81
2023-10-09T01:07:22.500Z,101577.52
2023-10-09T01:09:57.092Z,101580.90
2023-10-09T01:12:30.347Z,101584.61
2023-10-09T01:15:07.514Z,101595.42
2023-10-09T01:17:46.644Z,101599.00
2023-10-09T01:20:31.467Z,101599.08
2023-10-09T01:23:09.005Z,101598.45
2023-10-09T01:25:46.641Z,101601.87
2023-10-09T01:28:19.352Z,101600.00
2023-10-09T01:30:52.710Z,101602.79
2023-10-09T01:33:28.335Z,101603.59
2023-10-09T01:36:00.910Z,101608.67
2023-10-09T01:38:42.003Z,101620.57
2023-10-09T01:41:21.393Z,101626.66
2023-10-09T01:43:58.095Z,101622.58
2023-10-09T01:46:34.855Z,101628.55
2023-10-09T01:49:12.081Z,101638.94
2023-10-09T01:51:44.529Z,101639.95
2023-10-09T01:54:29.096Z,101648.29
2023-10-09T01:57:06.719Z,101645.09
2023-10-09T01:59:45.103Z,101651.29
2023-10-09T02:02:27.815Z,101654.98
2023-10-09T02:05:10.905Z,101647.88
2023-10-09T02:07:45.921Z,101643.47
2023-10-09T02:10:33.004Z,101640.77
2023-10-09T02:13:10.378Z,101643.77
2023-10-09T02:15:47.588Z,101641.15
2023-10-09T02:18:28.159Z,101644.48
2023-10-09T02:21:17.238Z,101648.87
2023-10-09T02:23:51.463Z,101655.43
2023-10-09T02:26:27.758Z,101659.75
2023-10-09T02:29:01.720Z,101668.16
2023-10-09T02:31:42.294Z,101669.73
2023-10-09T02:34:17.749Z,101672.61
2023-10-09T02:36:59.006Z,101680.20
2023-10-09T02:39:37.905Z,101673.77
2023-10-09T02:42:21.465Z,101666.25
2023-10-09T02:44:54.545Z,101669.59
2023-10-09T02:47:31.271Z,101658.64
2023-10-09T02:50:08.685Z,101656.36
2023-10-09T02:52:42.694Z,101655.06
2023-10-09T02:55:18.876Z,101665.64
2023-10-09T02:57:53.424Z,101675.41
2023-10-09T03:00:31.079Z,101671.04
2023-10-09T03:03:07.677Z,101669.82
2023-10-09T03:05:43.879Z,101675.89
2023-10-09T03:08:20.629Z,101686.05
2023-10-09T03:10:52.977Z,101688.09
2023-10-09T03:13:25.384Z,101682.99
2023-10-09T03:15:57.828Z,101686.43
2023-10-09T03:18:30.923Z,101682.73
2023-10-09T03:21:03.668Z,101688.41
2023-10-09T03:23:36.660Z,101692.54
2023-10-09T03:26:20.887Z,101691.01
2023-10-09T03:28:54.995Z,101691.40
2023-10-09T03:31:28.311Z,101695.22
2023-10-09T03:34:00.795Z,101698.45
2023-10-09T03:36:38.891Z,101704.20
2023-10-09T03:39:25.667Z,101710.58
2023-10-09T03:41:59.928Z,101711.85
2023-10-09T03:44:34.926Z,101715.85
2023-10-09T03:47:10.701Z,101716.20
2023-10-09T03:49:43.173Z,101719.52
2023-10-09T03:52:18.540Z,101725.64
2023-10-09T03:54:51.141Z,101720.77
2023-10-09T03:57:22.960Z,101722.41
2023-10-09T03:59:56.900Z,101726.15
2023-10-09T04:02:30.261Z,101723.41
2023-10-09T04:05:02.584Z,101722.60
2023-10-09T04:07:35.040Z,101720.87
2023-10-09T04:10:32.822Z,101727.41
2023-10-09T04:13:10.006Z,101737.08
2023-10-09T04:15:43.993Z,101744.05
2023-10-09T04:18:17.724Z,101743.62
2023-10-09T04:21:13.465Z,101754.91
2023-10-09T04:24:18.243Z,101765.67
2023-10-09T04:26:57.229Z,101765.15
2023-10-09T04:29:29.671Z,101764.95
2023-10-09T04:32:02.546Z,101766.88
2023-10-09T04:34:37.985Z,101767.77
2023-10-09T04:37:25.414Z,101766.78
2023-10-09T04:40:12.872Z,101771.76
2023-10-09T04:42:59.561Z,101783.66
2023-10-09T04:45:55.171Z,101784.14
2023-10-09T04:48:39.081Z,101776.14
2023-10-09T04:51:28.580Z,101781.70
2023-10-09T04:54:14.195Z,101788.86
2023-10-09T04:56:56.323Z,101795.33
2023-10-09T04:59:29.633Z,101799.33
2023-10-09T05:02:05.953Z,101799.25
2023-10-09T05:04:42.914Z,101801.41
2023-10-09T05:07:48.087Z,101807.27
2023-10-09T05:10:25.971Z,101809.64
2023-10-09T05:12:59.302Z,101811.63
2023-10-09T05:15:36.029Z,101817.02
2023-10-09T05:18:17.622Z,101820.35
2023-10-09T05:21:19.425Z,101825.40
2023-10-09T05:24:12.189Z,101839.01
2023-10-09T05:26:52.434Z,101841.66
2023-10-09T05:29:49.573Z,101846.69
2023-10-09T05:32:29.431Z,101844.02
2023-10-09T05:35:16.914Z,101850.02
2023-10-09T05:38:00.439Z,101853.34
2023-10-09T05:40:33.501Z,101859.48
2023-10-09T05:43:07.335Z,101858.66
2023-10-09T05:46:02.826Z,101860.64
2023-10-09T05:48:52.692Z,101859.29
2023-10-09T05:51:42.169Z,101854.65
2023-10-09T05:54:25.039Z,101857.79
2023-10-09T05:57:13.286Z,101852.98
2023-10-09T06:00:03.248Z,101851.41
2023-10-09T06:03:01.720Z,101857.11
2023-10-09T06:05:52.953Z,101860.95
2023-10-09T06:08:28.883Z,101864.89
2023-10-09T06:11:28.042Z,101860.75
2023-10-09T06:14:14.173Z,101863.08
2023-10-09T06:17:01.229Z,101869.71
2023-10-09T06:19:44.500Z,101867.55
2023-10-09T06:22:37.258Z,101869.69
2023-10-09T06:25:14.070Z,101873.39
2023-10-09T06:28:00.760Z,101871.92
2023-10-09T06:30:37.457Z,101872.36
2023-10-09T06:33:30.904Z,101875.73
2023-10-09T06:36:09.900Z,101876.46
2023-10-09T06:39:10.250Z,101876.26
2023-10-09T06:41:46.588Z,101880.52
2023-10-09T06:44:39.738Z,101884.57
2023-10-09T06:47:10.586Z,101877.74
2023-10-09T06:50:03.127Z,101875.15
2023-10-09T06:52:49.745Z,101872.34
2023-10-09T06:55:34.421Z,101871.42
2023-10-09T06:58:11.690Z,101870.03
2023-10-09T07:01:02.476Z,101873.34
2023-10-09T07:03:40.962Z,101878.07
2023-10-09T07:06:25.910Z,101878.85
2023-10-09T07:09:17.449Z,101877.03
2023-10-09T07:12:05.435Z,101876.91
2023-10-09T07:14:58.037Z,101879.16
2023-10-09T07:17:44.325Z,101880.02
2023-10-09T07:20:37.788Z,101875.09
2023-10-09T07:23:22.167Z,101874.87
2023-10-09T07:32:21.330Z,101883.90
2023-10-09T07:35:00.008Z,101881.42
2023-10-09T07:37:35.836Z,101881.30
2023-10-09T07:40:10.787Z,101877.13
2023-10-09T07:42:53.865Z,101883.94
2023-10-09T07:45:58.312Z,101884.45
2023-10-09T07:48:40.053Z,101884.13
2023-10-09T07:51:17.634Z,101883.84
2023-10-09T07:53:51.466Z,101880.05
2023-10-09T07:56:24.371Z,101869.40
2023-10-09T07:59:01.531Z,101860.48
2023-10-09T08:01:53.640Z,101856.52
2023-10-09T08:04:41.289Z,101852.75
2023-10-09T08:08:03.140Z,101847.38
2023-10-09T08:10:37.418Z,101841.95
2023-10-09T08:13:23.762Z,101836.73
2023-10-09T08:16:05.152Z,101823.63
2023-10-09T08:18:46.287Z,101818.48
2023-10-09T08:21:38.930Z,101821.20
2023-10-09T08:24:33.321Z,101824.43
2023-10-09T08:27:23.601Z,101838.53
2023-10-09T08:30:15.655Z,101835.01
2023-10-09T08:35:50.276Z,101830.43
2023-10-09T08:38:25.259Z,101832.33
2023-10-09T08:41:00.425Z,101823.89
2023-10-09T08:43:38.294Z,101821.92
2023-10-09T08:46:14.433Z,101816.38
2023-10-09T08:48:47.620Z,101819.52
2023-10-09T08:51:21.725Z,101811.20
2023-10-09T08:54:16.183Z,101814.11
2023-10-09T08:56:52.453Z,101810.21
2023-10-09T08:59:25.956Z,101811.09
2023-10-09T09:02:01.430Z,101808.56
2023-10-09T09:04:41.598Z,101815.30
2023-10-09T09:07:33.167Z,101811.77
2023-10-09T09:10:36.633Z,101809.36
2023-10-09T09:13:11.892Z,101808.17
2023-10-09T09:15:44.461Z,101802.08
2023-10-09T09:18:18.826Z,101794.79
2023-10-09T09:20:55.217Z,101790.48
2023-10-09T09:23:28.463Z,101788.80
2023-10-09T09:26:02.604Z,101782.06
2023-10-09T09:28:40.464Z,101784.27
2023-10-09T09:31:15.616Z,101779.30
2023-10-09T09:33:53.543Z,101777.71
2023-10-09T09:36:30.499Z,101780.08
2023-10-09T09:39:04.166Z,101780.05
2023-10-09T09:41:36.838Z,101773.50
2023-10-09T09:44:09.716Z,101762.52
2023-10-09T09:46:43.842Z,101758.64
2023-10-09T09:49:22.992Z,101753.45
2023-10-09T09:51:55.525Z,101746.38
2023-10-09T09:54:27.990Z,101741.65
2023-10-09T09:57:01.778Z,101733.61
2023-10-09T09:59:36.947Z,101730.09
2023-10-09T10:02:10.485Z,101728.61
2023-10-09T10:04:44.074Z,101720.38
2023-10-09T10:07:17.731Z,101719.08
2023-10-09T10:09:56.108Z,101708.95
2023-10-09T10:13:02.816Z,101700.14
2023-10-09T10:16:10.440Z,101694.19
2023-10-09T10:21:50.365Z,101672.30
2023-10-09T10:24:55.472Z,101673.70
2023-10-09T10:34:59.541Z,101651.20
2023-10-09T10:37:52.056Z,101645.64
2023-10-09T10:40:42.180Z,101636.91
2023-10-09T10:43:34.623Z,101622.77
2023-10-09T10:46:15.219Z,101618.94
2023-10-09T10:48:48.536Z,101600.79
2023-10-09T10:51:23.378Z,101586.19
2023-10-09T10:54:18.192Z,101572.17
2023-10-09T10:56:53.203Z,101560.11
2023-10-09T10:59:29.528Z,101559.45
2023-10-09T11:02:24.283Z,101546.95
2023-10-09T11:05:16.286Z,101534.77
2023-10-09T11:07:54.239Z,101532.02
2023-10-09T11:10:33.285Z,101531.60
2023-10-09T11:13:25.711Z,101524.06
2023-10-09T11:16:15.930Z,101513.42
2023-10-09T11:18:48.485Z,101509.23
2023-10-09T11:21:33.445Z,101507.71
2023-10-09T11:24:19.840Z,101502.10
2023-10-09T11:26:56.864Z,101497.05
2023-10-09T11:29:52.249Z,101491.11
2023-10-09T11:32:26.733Z,101487.30
2023-10-09T11:35:16.420Z,101485.58
2023-10-09T11:37:57.182Z,101487.58
2023-10-09T11:40:51.405Z,101477.30
2023-10-09T11:43:44.229Z,101468.04
2023-10-09T11:46:38.522Z,101462.05
2023-10-09T11:49:32.244Z,101458.92
2023-10-09T11:52:37.612Z,101452.17
2023-10-09T11:55:16.264Z,101446.54
2023-10-09T11:57:51.585Z,101446.34
2023-10-09T12:00:30.773Z,101451.77
2023-10-09T12:03:07.365Z,101451.36
2023-10-09T12:05:44.027Z,101447.20
2023-10-09T12:08:17.880Z,101428.87
2023-10-09T12:10:50.450Z,101415.41
2023-10-09T12:13:23.889Z,101406.05
2023-10-09T12:15:59.226Z,101398.58
2023-10-09T12:18:36.111Z,101400.54
2023-10-09T12:21:09.097Z,101404.37
2023-10-09T12:23:42.461Z,101390.58
2023-10-09T12:26:16.232Z,101389.96
2023-10-09T12:28:51.129Z,101382.98
2023-10-09T12:31:25.340Z,101387.95
2023-10-09T12:34:00.444Z,101384.23
2023-10-09T12:36:38.767Z,101384.65
2023-10-09T12:39:19.006Z,101390.71
2023-10-09T12:41:54.835Z,101383.23
2023-10-09T12:44:28.485Z,101367.87
2023-10-09T12:47:05.293Z,101363.84
2023-10-09T12:49:39.533Z,101370.36
2023-10-09T12:52:16.779Z,101378.02
2023-10-09T12:54:49.410Z,101382.52
2023-10-09T12:57:22.177Z,101382.98
2023-10-09T12:59:55.128Z,101378.67
2023-10-09T13:02:31.060Z,101370.23
2023-10-09T13:05:06.951Z,101356.06
2023-10-09T13:07:39.656Z,101352.88
2023-10-09T13:10:14.546Z,101345.56
2023-10-09T13:12:46.943Z,101343.94
2023-10-09T13:15:22.288Z,101342.81
2023-10-09T13:17:55.033Z,101335.23
2023-10-09T13:20:28.926Z,101324.70
2023-10-09T13:23:02.834Z,101309.89
2023-10-09T13:28:31.403Z,101295.48
2023-10-09T13:31:05.661Z,101286.23
2023-10-09T13:34:00.592Z,101276.22
2023-10-09T13:36:34.375Z,101284.35
2023-10-09T13:42:20.868Z,101277.67
2023-10-09T13:44:55.145Z,101277.88
2023-10-09T13:47:32.998Z,101274.55
2023-10-09T13:50:06.327Z,101276.52
2023-10-09T13:52:40.731Z,101272.34
2023-10-09T13:55:17.559Z,101265.23
2023-10-09T13:57:50.398Z,101261.63
2023-10-09T14:00:34.093Z,101258.49
2023-10-09T14:03:13.544Z,101256.36
2023-10-09T14:05:55.915Z,101253.09
2023-10-09T14:08:30.350Z,101244.06
2023-10-09T14:11:05.035Z,101236.14
2023-10-09T14:13:37.640Z,101232.13
2023-10-09T14:16:25.080Z,101228.07
2023-10-09T14:19:02.106Z,101218.50
2023-10-09T14:21:38.991Z,101212.47
2023-10-09T14:24:19.782Z,101210.50
2023-10-09T14:26:53.245Z,101214.75
2023-10-09T14:29:27.949Z,101206.27
2023-10-09T14:32:04.029Z,101197.21
2023-10-09T14:34:38.119Z,101187.96
2023-10-09T14:37:11.561Z,101188.99
2023-10-09T14:39:43.972Z,101186.95
2023-10-09T14:42:16.463Z,101181.17
2023-10-09T14:44:49.078Z,101171.25
2023-10-09T14:47:22.305Z,101166.41
2023-10-09T14:49:57.738Z,101158.85
2023-10-09T14:52:30.127Z,101161.23
2023-10-09T14:55:01.629Z,101162.46
2023-10-09T14:57:35.101Z,101160.54
2023-10-09T15:00:11.748Z,101159.55
2023-10-09T15:02:44.163Z,101159.48
2023-10-09T15:05:14.967Z,101160.09
2023-10-09T15:07:48.101Z,101165.82
2023-10-09T15:10:20.989Z,101173.85
2023-10-09T15:12:53.391Z,101173.61
2023-10-09T15:15:26.930Z,101173.06
2023-10-09T15:17:59.973Z,101171.23
2023-10-09T15:20:32.908Z,101170.23
2023-10-09T15:23:06.788Z,101169.59
2023-10-09T15:25:40.911Z,101167.34
2023-10-09T15:28:13.612Z,101172.23
2023-10-09T15:30:48.830Z,101172.41
2023-10-09T15:33:22.077Z,101167.64
2023-10-09T15:35:54.688Z,101164.55
2023-10-09T15:38:27.010Z,101156.74
2023-10-09T15:45:25.410Z,101137.52
2023-10-09T15:47:58.668Z,101137.33
2023-10-09T15:50:31.094Z,101133.07
2023-10-09T15:53:03.642Z,101133.86
2023-10-09T15:55:39.460Z,101120.98
2023-10-09T15:58:12.190Z,101111.66
2023-10-09T16:00:47.276Z,101110.81
2023-10-09T16:03:20.086Z,101116.09
2023-10-09T16:05:52.590Z,101125.10
2023-10-09T16:08:23.999Z,101130.52
2023-10-09T16:10:56.580Z,101129.39
2023-10-09T16:13:29.207Z,101127.80
2023-10-09T16:16:04.428Z,101126.81
2023-10-09T16:18:36.878Z,101122.12
2023-10-09T16:21:13.698Z,101122.11
2023-10-09T16:23:46.477Z,101117.60
2023-10-09T16:26:17.827Z,101111.83
2023-10-09T16:28:53.240Z,101113.92
2023-10-09T16:31:26.178Z,101110.45
2023-10-09T16:33:59.250Z,101109.23
2023-10-09T16:36:31.823Z,101103.24
2023-10-09T16:39:05.357Z,101099.42
2023-10-09T16:41:41.417Z,101100.42
2023-10-09T16:47:31.544Z,101102.61
2023-10-09T16:50:04.633Z,101092.51
2023-10-09T16:52:39.240Z,101091.00
2023-10-09T16:55:12.987Z,101104.67
2023-10-09T16:57:47.717Z,101109.59
2023-10-09T17:00:32.010Z,101111.98
2023-10-09T17:03:08.143Z,101107.71
2023-10-09T17:05:56.556Z,101106.08
2023-10-09T17:08:34.360Z,101099.50
2023-10-09T17:11:11.273Z,101094.08
2023-10-09T17:13:46.004Z,101096.05
2023-10-09T17:16:21.218Z,101097.00
2023-10-09T17:18:57.263Z,101101.54
2023-10-09T17:21:37.433Z,101104.53
2023-10-09T17:24:12.418Z,101101.81
2023-10-09T17:26:47.359Z,101106.59
2023-10-09T17:29:19.816Z,101095.12
2023-10-09T17:31:52.487Z,101088.48
2023-10-09T17:34:27.927Z,101089.07
2023-10-09T17:37:00.323Z,101080.10
2023-10-09T17:39:34.041Z,101071.71
2023-10-09T17:42:09.457Z,101065.90
2023-10-09T17:44:41.781Z,101063.54
2023-10-09T17:47:14.410Z,101064.61
2023-10-09T17:49:51.034Z,101067.55
2023-10-09T17:52:24.427Z,101068.64
2023-10-09T17:54:57.983Z,101071.87
2023-10-09T17:57:31.662Z,101071.68
2023-10-09T18:00:05.030Z,101070.99
2023-10-09T18:02:37.825Z,101070.08
2023-10-09T18:05:11.007Z,101069.90
2023-10-09T18:07:45.433Z,101067.84
2023-10-09T18:10:18.870Z,101073.46
2023-10-09T18:12:51.615Z,101082.77
2023-10-09T18:15:24.575Z,101085.11
2023-10-09T18:17:57.182Z,101076.64
2023-10-09T18:20:33.694Z,101081.38
2023-10-09T18:23:07.843Z,101077.51
2023-10-09T18:25:41.616Z,101073.86
2023-10-09T18:28:15.420Z,101068.80
2023-10-09T18:30:50.573Z,101058.31
2023-10-09T18:33:24.437Z,101053.84
2023-10-09T18:35:57.687Z,101057.55
2023-10-09T18:38:30.785Z,101061.79
2023-10-09T18:41:06.360Z,101047.95
2023-10-09T18:43:41.454Z,101039.75
2023-10-09T18:46:14.902Z,101034.40
2023-10-09T18:48:47.642Z,101018.72
2023-10-09T18:51:22.678Z,101021.43
2023-10-09T18:53:55.136Z,101020.19
2023-10-09T18:56:27.110Z,101021.15
2023-10-09T18:59:01.541Z,101018.01
2023-10-09T19:01:36.350Z,101019.71
2023-10-09T19:04:10.390Z,101024.16
2023-10-09T19:06:47.283Z,101019.34
2023-10-09T19:09:24.055Z,101012.55
2023-10-09T19:11:58.648Z,101021.29
2023-10-09T19:14:32.832Z,101020.16
2023-10-09T19:17:06.271Z,101023.86
2023-10-09T19:19:39.434Z,101030.13
2023-10-09T19:22:12.486Z,101029.63
2023-10-09T19:24:46.789Z,101031.59
2023-10-09T19:27:21.019Z,101027.48
2023-10-09T19:29:54.415Z,101025.82
2023-10-09T19:32:26.901Z,101029.06
2023-10-09T19:35:02.383Z,101021.28
2023-10-09T19:37:34.784Z,101011.97
2023-10-09T19:40:12.250Z,101009.48
2023-10-09T19:42:47.452Z,101003.88
2023-10-09T19:45:22.285Z,101003.77
2023-10-09T19:48:03.182Z,101000.98
2023-10-09T19:50:36.475Z,101005.83
2023-10-09T19:53:09.477Z,101006.48
2023-10-09T19:55:46.094Z,100989.86
2023-10-09T19:58:21.124Z,100978.20
2023-10-09T20:00:55.580Z,100983.67
2023-10-09T20:03:31.592Z,101010.85
2023-10-09T20:06:07.615Z,101015.24
2023-10-09T20:08:41.065Z,101015.44
2023-10-09T20:11:16.656Z,101015.98
2023-10-09T20:13:52.008Z,101026.40
2023-10-09T20:16:28.498Z,101033.41
2023-10-09T20:19:01.822Z,101025.92
2023-10-09T20:21:36.505Z,101026.32
2023-10-09T20:24:11.302Z,101027.70
2023-10-09T20:26:44.304Z,101032.95
2023-10-09T20:29:19.070Z,101034.33
2023-10-09T20:31:51.828Z,101031.75
2023-10-09T20:34:28.047Z,101025.05
2023-10-09T20:37:04.822Z,101016.93
2023-10-09T20:39:40.290Z,101014.86
2023-10-09T20:42:15.136Z,101017.00
2023-10-09T20:44:48.850Z,101014.92
2023-10-09T20:47:22.555Z,101022.57
2023-10-09T20:49:58.177Z,101017.00
2023-10-09T20:52:34.022Z,100993.76
2023-10-09T20:55:10.467Z,100995.86
2023-10-09T20:57:45.533Z,101000.55
2023-10-09T21:00:24.158Z,101005.29
2023-10-09T21:03:00.865Z,101014.14
2023-10-09T21:11:45.436Z,101030.91
2023-10-09T21:14:18.346Z,101016.95
2023-10-09T21:16:51.110Z,101005.45
2023-10-09T21:19:23.750Z,101005.54
2023-10-09T21:21:55.158Z,100999.49
2023-10-09T21:24:27.953Z,101007.58
2023-10-09T21:27:00.418Z,101008.20
2023-10-09T21:36:35.323Z,101002.27
2023-10-09T21:39:10.786Z,101009.06
2023-10-09T21:41:43.357Z,101013.15
2023-10-09T21:44:14.962Z,101003.94
2023-10-09T21:46:47.766Z,101001.66
2023-10-09T21:49:20.320Z,100996.50
2023-10-09T21:51:51.653Z,101000.05
2023-10-09T21:54:24.136Z,100994.98
2023-10-09T21:56:54.944Z,100988.63
2023-10-09T21:59:27.429Z,100982.83
2023-10-09T22:01:58.868Z,100983.08
2023-10-09T22:04:31.379Z,100978.57
2023-10-09T22:07:03.904Z,100972.48
2023-10-09T22:09:34.674Z,100977.36
2023-10-09T22:12:07.635Z,100980.48
2023-10-09T22:14:40.137Z,100972.27
2023-10-09T22:17:10.981Z,100976.79
2023-10-09T22:19:43.810Z,100976.67
2023-10-09T22:22:23.735Z,100976.24
2023-10-09T22:24:59.665Z,100982.69
2023-10-09T22:27:36.435Z,100977.79
2023-10-09T22:30:13.591Z,100976.29
2023-10-09T22:32:49.418Z,100979.14
2023-10-09T22:35:22.252Z,100975.92
2023-10-09T22:37:59.429Z,100977.69
2023-10-09T22:40:39.709Z,100973.66
2023-10-09T22:43:15.858Z,100975.66
2023-10-09T22:45:50.237Z,100968.75
2023-10-09T22:48:28.278Z,100963.67
2023-10-09T22:51:10.862Z,100959.69
2023-10-09T22:53:47.918Z,100964.55
2023-10-09T22:56:22.374Z,100962.36
2023-10-09T22:58:55.336Z,100961.79
2023-10-09T23:01:27.884Z,100954.79
2023-10-09T23:04:17.038Z,100957.60
2023-10-09T23:06:49.702Z,100954.00
2023-10-09T23:09:32.158Z,100955.24
2023-10-09T23:12:08.758Z,100959.77
2023-10-09T23:14:44.403Z,100968.18
2023-10-09T23:17:20.257Z,100966.92
2023-10-09T23:19:57.785Z,100970.10
2023-10-09T23:22:47.746Z,100968.56
2023-10-09T23:25:29.060Z,100968.45
2023-10-09T23:31:13.705Z,100970.61
2023-10-09T23:33:52.576Z,100971.54
2023-10-09T23:36:31.542Z,100967.15
2023-10-09T23:39:13.847Z,100964.77
2023-10-09T23:42:01.850Z,100964.24
2023-10-09T23:44:36.566Z,100965.42
2023-10-09T23:47:17.958Z,100966.70
2023-10-09T23:49:51.624Z,100965.21
2023-10-09T23:52:26.456Z,100964.38
2023-10-09T23:55:03.484Z,100964.45
